Time;durP1;ratioP1;P1;durP2;ratioP2;P2;SDS_P1;SDS_P2;PMS_P1;PMS_P2;Temp;Humidity;BMP_temperature;BMP_pressure;BME280_temperature;BME280_humidity;BME280_pressure;Samples;Min_cycle;Max_cycle;Signal;HPM_P1;HPM_P2
2024/03/29 00:00:55;;;;;;;18.95;11.20;;;;;;;-145.63;100.00;61273.97;5113993;27;20019;-64
2024/03/29 00:03:21;;;;;;;18.52;10.77;;;;;;;-145.63;100.00;61273.97;5131495;27;20030;-63
2024/03/29 00:05:46;;;;;;;20.88;11.35;;;;;;;-145.63;100.00;61273.97;5123047;27;20462;-64
2024/03/29 00:08:12;;;;;;;23.13;11.70;;;;;;;-145.63;100.00;61273.97;5113510;27;20024;-63
2024/03/29 00:10:38;;;;;;;24.80;11.93;;;;;;;-145.63;100.00;61273.97;5131357;27;20027;-63
2024/03/29 00:13:04;;;;;;;18.58;11.43;;;;;;;-145.63;100.00;61273.97;5112189;28;20384;-63
2024/03/29 00:15:32;;;;;;;22.15;11.68;;;;;;;-145.63;100.00;61273.97;5111603;28;20061;-63
2024/03/29 00:17:58;;;;;;;21.15;11.35;;;;;;;-145.63;100.00;61273.97;5093026;28;20035;-62
2024/03/29 00:20:23;;;;;;;19.15;11.35;;;;;;;-145.63;100.00;61273.97;5117275;28;20026;-64
2024/03/29 00:22:49;;;;;;;21.55;11.77;;;;;;;-145.63;100.00;61273.97;5130623;28;20106;-63
2024/03/29 00:25:15;;;;;;;21.58;11.00;;;;;;;-145.63;100.00;61273.97;5111495;28;20053;-63
2024/03/29 00:27:41;;;;;;;20.95;12.25;;;;;;;-145.63;100.00;61273.97;5111889;28;20101;-63
2024/03/29 00:30:07;;;;;;;21.15;12.05;;;;;;;-145.63;100.00;61273.97;5122946;28;20023;-63
2024/03/29 00:32:33;;;;;;;19.98;11.68;;;;;;;-145.63;100.00;61273.97;5124896;28;20028;-63
2024/03/29 00:34:58;;;;;;;19.25;11.32;;;;;;;-145.63;100.00;61273.97;5111553;28;20364;-63
2024/03/29 00:37:24;;;;;;;22.13;11.82;;;;;;;-145.63;100.00;61273.97;5111079;28;20031;-63
2024/03/29 00:39:50;;;;;;;20.83;12.40;;;;;;;-145.63;100.00;61273.97;5129645;28;20039;-63
2024/03/29 00:42:16;;;;;;;21.75;11.60;;;;;;;-145.63;100.00;61273.97;5118681;28;20066;-62
2024/03/29 00:44:43;;;;;;;23.45;12.82;;;;;;;-145.63;100.00;61273.97;5119685;28;20027;-62
2024/03/29 00:47:09;;;;;;;22.50;12.13;;;;;;;-145.63;100.00;61273.97;5128233;28;20024;-64
2024/03/29 00:49:35;;;;;;;21.02;12.52;;;;;;;-145.63;100.00;61273.97;5111778;28;20461;-62
2024/03/29 00:52:02;;;;;;;17.92;11.55;;;;;;;-145.63;100.00;61273.97;5110964;28;20504;-64
2024/03/29 00:54:28;;;;;;;21.33;11.88;;;;;;;-145.63;100.00;61273.97;5125492;28;20030;-62
2024/03/29 00:56:54;;;;;;;23.05;12.68;;;;;;;-145.63;100.00;61273.97;5122201;28;20375;-63
2024/03/29 00:59:22;;;;;;;21.83;12.82;;;;;;;-145.63;100.00;61273.97;5115877;28;20046;-63
2024/03/29 01:01:49;;;;;;;21.85;12.88;;;;;;;-145.63;100.00;61273.97;5125630;28;20024;-63
2024/03/29 01:04:15;;;;;;;24.77;12.45;;;;;;;-145.63;100.00;61273.97;5110893;28;20036;-64
2024/03/29 01:06:41;;;;;;;19.58;12.02;;;;;;;-145.63;100.00;61273.97;5127278;28;20038;-63
2024/03/29 01:09:11;;;;;;;29.55;13.40;;;;;;;-145.63;100.00;61273.97;5120471;28;20028;-64
2024/03/29 01:11:37;;;;;;;21.50;13.13;;;;;;;-145.63;100.00;61273.97;5118142;28;20031;-64
2024/03/29 01:14:04;;;;;;;21.58;13.15;;;;;;;-145.63;100.00;61273.97;5128758;28;20027;-64
2024/03/29 01:16:30;;;;;;;23.38;14.02;;;;;;;-145.63;100.00;61273.97;5111072;28;20023;-63
2024/03/29 01:18:57;;;;;;;25.38;12.93;;;;;;;-145.63;100.00;61273.97;5129264;28;20403;-64
2024/03/29 01:21:23;;;;;;;21.45;13.40;;;;;;;-145.63;100.00;61273.97;5122348;27;20048;-64
2024/03/29 01:23:49;;;;;;;21.27;13.05;;;;;;;-145.63;100.00;61273.97;5135347;27;20047;-63
2024/03/29 01:26:17;;;;;;;20.48;12.15;;;;;;;-145.63;100.00;61273.97;5131047;27;20082;-63
2024/03/29 01:28:43;;;;;;;22.70;13.23;;;;;;;-145.63;100.00;61273.97;5125274;27;20050;-63
2024/03/29 01:31:09;;;;;;;20.73;12.68;;;;;;;-145.63;100.00;61273.97;5114983;27;20386;-63
2024/03/29 01:33:37;;;;;;;25.10;13.15;;;;;;;-145.63;100.00;61273.97;5129867;27;20041;-64
2024/03/29 01:36:06;;;;;;;22.23;13.90;;;;;;;-145.63;100.00;61273.97;5124216;27;20023;-63
2024/03/29 01:38:32;;;;;;;22.73;13.60;;;;;;;-145.63;100.00;61273.97;5114283;28;20035;-63
2024/03/29 01:40:57;;;;;;;25.92;14.13;;;;;;;-145.63;100.00;61273.97;5114288;28;20073;-63
2024/03/29 01:43:24;;;;;;;24.20;12.88;;;;;;;-145.63;100.00;61273.97;5114112;28;20031;-63
2024/03/29 01:45:53;;;;;;;22.80;13.52;;;;;;;-145.63;100.00;61273.97;5131562;27;20023;-64
2024/03/29 01:48:20;;;;;;;24.40;13.27;;;;;;;-145.63;100.00;61273.97;5121463;27;20070;-63
2024/03/29 01:50:47;;;;;;;23.08;13.43;;;;;;;-145.63;100.00;61273.97;5103801;27;20434;-62
2024/03/29 01:53:15;;;;;;;19.98;13.27;;;;;;;-145.63;100.00;61273.97;5131209;27;20345;-63
2024/03/29 01:55:41;;;;;;;22.33;13.15;;;;;;;-145.63;100.00;61273.97;5112635;28;20444;-63
2024/03/29 01:58:09;;;;;;;25.20;14.40;;;;;;;-145.63;100.00;61273.97;5114116;28;20042;-61
2024/03/29 02:00:38;;;;;;;21.08;12.95;;;;;;;-145.63;100.00;61273.97;5128664;27;20031;-63
2024/03/29 02:03:09;;;;;;;20.23;12.18;;;;;;;-145.63;100.00;61273.97;5117281;27;20107;-62
2024/03/29 02:05:39;;;;;;;23.17;12.10;;;;;;;-145.63;100.00;61273.97;5120328;27;20063;-63
2024/03/29 02:08:07;;;;;;;21.27;12.95;;;;;;;-145.63;100.00;61273.97;5131871;27;20444;-62
2024/03/29 02:10:33;;;;;;;20.02;13.13;;;;;;;-145.63;100.00;61273.97;5125790;27;20027;-63
2024/03/29 02:12:59;;;;;;;24.85;13.38;;;;;;;-145.63;100.00;61273.97;5097802;28;20423;-63
2024/03/29 02:15:25;;;;;;;21.42;12.80;;;;;;;-145.63;100.00;61273.97;5113278;28;20082;-63
2024/03/29 02:17:51;;;;;;;24.02;13.85;;;;;;;-145.63;100.00;61273.97;5103723;27;20034;-63
2024/03/29 02:20:17;;;;;;;20.13;12.80;;;;;;;-145.63;100.00;61273.97;5130122;27;20028;-64
2024/03/29 02:22:50;;;;;;;21.92;12.35;;;;;;;-145.63;100.00;61273.97;5113355;28;20027;-62
2024/03/29 02:25:16;;;;;;;24.05;12.68;;;;;;;-145.63;100.00;61273.97;5113324;28;20074;-63
2024/03/29 02:27:42;;;;;;;23.77;13.20;;;;;;;-145.63;100.00;61273.97;5129293;27;20512;-63
2024/03/29 02:30:08;;;;;;;21.17;12.52;;;;;;;-145.63;100.00;61273.97;5122443;27;20031;-64
2024/03/29 02:32:34;;;;;;;19.23;11.77;;;;;;;-145.63;100.00;61273.97;5112304;28;20352;-64
2024/03/29 02:34:59;;;;;;;20.50;12.55;;;;;;;-145.63;100.00;61273.97;5113566;28;20092;-64
2024/03/29 02:37:25;;;;;;;20.23;12.25;;;;;;;-145.63;100.00;61273.97;5113231;28;20118;-63
2024/03/29 02:39:51;;;;;;;19.23;12.30;;;;;;;-145.63;100.00;61273.97;5111753;27;20031;-63
2024/03/29 02:42:17;;;;;;;28.65;16.38;;;;;;;-145.63;100.00;61273.97;5121514;27;20392;-63
2024/03/29 02:44:42;;;;;;;20.70;11.60;;;;;;;-145.63;100.00;61273.97;5119837;27;20031;-63
2024/03/29 02:47:08;;;;;;;20.40;12.13;;;;;;;-145.63;100.00;61273.97;5131556;27;20019;-62
2024/03/29 02:49:33;;;;;;;18.80;11.38;;;;;;;-145.63;100.00;61273.97;5113080;28;20084;-63
2024/03/29 02:51:59;;;;;;;18.30;11.52;;;;;;;-145.63;100.00;61273.97;5130576;27;20023;-63
2024/03/29 02:54:25;;;;;;;24.80;11.98;;;;;;;-145.63;100.00;61273.97;5120109;27;20111;-63
2024/03/29 02:56:50;;;;;;;22.95;11.93;;;;;;;-145.63;100.00;61273.97;5113027;28;20388;-63
2024/03/29 02:59:16;;;;;;;20.52;11.63;;;;;;;-145.63;100.00;61273.97;5115972;27;20056;-64
2024/03/29 03:01:42;;;;;;;23.20;12.38;;;;;;;-145.63;100.00;61273.97;5127955;27;20102;-64
2024/03/29 03:04:07;;;;;;;20.90;11.90;;;;;;;-145.63;100.00;61273.97;5112367;28;20043;-64
2024/03/29 03:06:33;;;;;;;21.30;11.98;;;;;;;-145.63;100.00;61273.97;5126190;27;20090;-64
2024/03/29 03:11:43;;;;;;;18.60;11.55;;;;;;;-145.63;100.00;61273.97;5112456;28;20042;-64
2024/03/29 03:14:08;;;;;;;18.77;11.13;;;;;;;-145.63;100.00;61273.97;5113399;27;20031;-63
2024/03/29 03:16:34;;;;;;;20.08;10.65;;;;;;;-145.63;100.00;61273.97;5113116;28;20031;-63
2024/03/29 03:19:00;;;;;;;20.90;11.85;;;;;;;-145.63;100.00;61273.97;5112329;28;20023;-63
2024/03/29 03:21:25;;;;;;;20.80;11.70;;;;;;;-145.63;100.00;61273.97;5124852;27;20031;-63
2024/03/29 03:23:51;;;;;;;18.98;12.18;;;;;;;-145.63;100.00;61273.97;5132810;27;20055;-63
2024/03/29 03:26:16;;;;;;;19.65;11.52;;;;;;;-145.63;100.00;61273.97;5129402;27;20500;-64
2024/03/29 03:28:42;;;;;;;20.38;11.18;;;;;;;-145.63;100.00;61273.97;5112916;28;20043;-64
2024/03/29 03:31:09;;;;;;;17.10;11.43;;;;;;;-145.63;100.00;61273.97;5130605;27;20035;-63
2024/03/29 03:33:34;;;;;;;19.25;12.07;;;;;;;-145.63;100.00;61273.97;5118349;27;20028;-63
2024/03/29 03:36:00;;;;;;;19.40;10.80;;;;;;;-145.63;100.00;61273.97;5121296;27;20138;-63
2024/03/29 03:38:25;;;;;;;19.58;11.30;;;;;;;-145.63;100.00;61273.97;5128278;27;20036;-63
2024/03/29 03:40:51;;;;;;;18.77;10.90;;;;;;;-145.63;100.00;61273.97;5112340;28;20038;-63
2024/03/29 03:43:16;;;;;;;16.80;10.43;;;;;;;-145.63;100.00;61273.97;5111980;28;20038;-63
2024/03/29 03:45:44;;;;;;;19.23;11.23;;;;;;;-145.63;100.00;61273.97;5108238;28;20523;-63
2024/03/29 03:48:11;;;;;;;18.05;11.07;;;;;;;-145.63;100.00;61273.97;5103298;28;20357;-63
2024/03/29 03:50:37;;;;;;;19.70;10.27;;;;;;;-145.63;100.00;61273.97;5117564;27;20429;-63
2024/03/29 03:53:03;;;;;;;19.88;10.88;;;;;;;-145.63;100.00;61273.97;5131606;27;20019;-63
2024/03/29 03:55:29;;;;;;;20.27;10.50;;;;;;;-145.63;100.00;61273.97;5111699;28;20023;-63
2024/03/29 03:57:55;;;;;;;20.30;12.35;;;;;;;-145.63;100.00;61273.97;5111739;28;20055;-63
2024/03/29 04:00:22;;;;;;;15.95;10.65;;;;;;;-145.63;100.00;61273.97;5123254;27;20055;-64
2024/03/29 04:02:52;;;;;;;20.48;10.68;;;;;;;-145.63;100.00;61273.97;5117417;27;20510;-63
2024/03/29 04:05:19;;;;;;;17.77;10.35;;;;;;;-145.63;100.00;61273.97;5096111;28;20388;-63
2024/03/29 04:07:45;;;;;;;17.85;9.73;;;;;;;-145.63;100.00;61273.97;5132205;27;20035;-62
2024/03/29 04:10:11;;;;;;;19.50;10.93;;;;;;;-145.63;100.00;61273.97;5113169;28;20468;-62
2024/03/29 04:12:37;;;;;;;18.67;11.13;;;;;;;-145.63;100.00;61273.97;5111645;28;20035;-63
2024/03/29 04:15:04;;;;;;;21.83;10.35;;;;;;;-145.63;100.00;61273.97;5120419;28;20076;-63
2024/03/29 04:17:31;;;;;;;19.40;10.73;;;;;;;-145.63;100.00;61273.97;5127803;28;20045;-64
2024/03/29 04:20:00;;;;;;;15.90;10.30;;;;;;;-145.63;100.00;61273.97;5111403;28;20118;-64
2024/03/29 04:22:29;;;;;;;15.15;9.85;;;;;;;-145.63;100.00;61273.97;5111484;28;20032;-64
2024/03/29 04:24:55;;;;;;;20.10;10.77;;;;;;;-145.63;100.00;61273.97;5111617;28;20074;-64
2024/03/29 04:27:21;;;;;;;20.67;10.55;;;;;;;-145.63;100.00;61273.97;5117743;28;20468;-63
2024/03/29 04:29:46;;;;;;;14.63;10.13;;;;;;;-145.63;100.00;61273.97;5111135;28;20112;-64
2024/03/29 04:32:13;;;;;;;21.55;9.20;;;;;;;-145.63;100.00;61273.97;5113186;28;20061;-64
2024/03/29 04:34:38;;;;;;;17.30;9.65;;;;;;;-145.63;100.00;61273.97;5132186;28;20038;-64
2024/03/29 04:37:04;;;;;;;18.95;9.13;;;;;;;-145.63;100.00;61273.97;5113933;28;20456;-65
2024/03/29 04:39:30;;;;;;;19.45;10.07;;;;;;;-145.63;100.00;61273.97;5124006;28;20486;-63
2024/03/29 04:41:55;;;;;;;17.00;9.48;;;;;;;-145.63;100.00;61273.97;5123855;28;20141;-63
2024/03/29 04:44:25;;;;;;;16.15;9.75;;;;;;;-145.63;100.00;61273.97;5110306;28;20176;-64
2024/03/29 04:46:52;;;;;;;17.88;10.35;;;;;;;-145.63;100.00;61273.97;5111607;28;20035;-64
2024/03/29 04:49:28;;;;;;;21.60;9.88;;;;;;;-145.63;100.00;61273.97;5130688;28;20406;-64
2024/03/29 04:51:54;;;;;;;15.35;9.13;;;;;;;-145.63;100.00;61273.97;5129458;28;20042;-63
2024/03/29 04:54:20;;;;;;;16.85;9.68;;;;;;;-145.63;100.00;61273.97;5120104;28;20024;-63
2024/03/29 04:56:45;;;;;;;14.82;9.15;;;;;;;-145.63;100.00;61273.97;5114171;28;20499;-62
2024/03/29 04:59:11;;;;;;;16.58;9.02;;;;;;;-145.63;100.00;61273.97;5098272;27;20039;-63
2024/03/29 05:01:36;;;;;;;18.58;9.43;;;;;;;-145.63;100.00;61273.97;5131227;27;20031;-64
2024/03/29 05:04:02;;;;;;;14.05;8.32;;;;;;;-145.63;100.00;61273.97;5114432;28;20472;-64
2024/03/29 05:06:29;;;;;;;15.57;8.45;;;;;;;-145.63;100.00;61273.97;5126982;27;20472;-63
2024/03/29 05:08:55;;;;;;;17.05;8.30;;;;;;;-145.63;100.00;61273.97;5128212;27;20051;-64
2024/03/29 05:11:21;;;;;;;18.25;9.02;;;;;;;-145.63;100.00;61273.97;5099051;27;20070;-63
2024/03/29 05:13:47;;;;;;;15.30;9.25;;;;;;;-145.63;100.00;61273.97;5135627;27;20550;-64
2024/03/29 05:16:13;;;;;;;16.65;9.05;;;;;;;-145.63;100.00;61273.97;5125336;27;20352;-65
2024/03/29 05:18:38;;;;;;;23.73;8.90;;;;;;;-145.63;100.00;61273.97;5121676;27;20163;-63
2024/03/29 05:21:04;;;;;;;14.40;9.00;;;;;;;-145.63;100.00;61273.97;5115174;28;20032;-64
2024/03/29 05:23:30;;;;;;;17.33;9.20;;;;;;;-145.63;100.00;61273.97;5134681;27;20180;-64
2024/03/29 05:25:56;;;;;;;17.80;9.20;;;;;;;-145.63;100.00;61273.97;5134651;27;20068;-64
2024/03/29 05:28:22;;;;;;;18.45;9.20;;;;;;;-145.63;100.00;61273.97;5115702;27;20042;-64
2024/03/29 05:30:47;;;;;;;18.23;9.63;;;;;;;-145.63;100.00;61273.97;5129520;27;20194;-63
2024/03/29 05:33:13;;;;;;;20.13;9.13;;;;;;;-145.63;100.00;61273.97;5125126;27;20102;-62
2024/03/29 05:35:39;;;;;;;17.92;9.07;;;;;;;-145.63;100.00;61273.97;5128170;27;20059;-63
2024/03/29 05:38:04;;;;;;;18.17;9.77;;;;;;;-145.63;100.00;61273.97;5114274;28;20061;-63
2024/03/29 05:40:30;;;;;;;20.13;9.30;;;;;;;-145.63;100.00;61273.97;5114129;28;20031;-63
2024/03/29 05:42:56;;;;;;;19.48;9.98;;;;;;;-145.63;100.00;61273.97;5130433;27;20035;-62
2024/03/29 05:45:27;;;;;;;22.48;10.48;;;;;;;-145.63;100.00;61273.97;5123442;27;20043;-63
2024/03/29 05:47:56;;;;;;;20.55;9.43;;;;;;;-145.63;100.00;61273.97;5114331;28;20032;-63
2024/03/29 05:50:23;;;;;;;20.38;10.32;;;;;;;-145.63;100.00;61273.97;5116265;27;20027;-62
2024/03/29 05:52:50;;;;;;;20.52;10.05;;;;;;;-145.63;100.00;61273.97;5114001;28;20066;-63
2024/03/29 05:55:15;;;;;;;19.60;9.57;;;;;;;-145.63;100.00;61273.97;5095069;28;20448;-63
2024/03/29 05:57:41;;;;;;;20.85;10.30;;;;;;;-145.63;100.00;61273.97;5127054;27;20067;-64
2024/03/29 06:00:11;;;;;;;19.77;8.93;;;;;;;-145.63;100.00;61273.97;5126040;27;20080;-63
2024/03/29 06:02:37;;;;;;;16.27;8.45;;;;;;;-145.63;100.00;61273.97;5127117;27;20063;-63
2024/03/29 06:05:04;;;;;;;14.95;8.63;;;;;;;-145.63;100.00;61273.97;5134137;27;20066;-65
2024/03/29 06:07:33;;;;;;;18.88;9.15;;;;;;;-145.63;100.00;61273.97;5114020;27;20031;-64
2024/03/29 06:10:04;;;;;;;18.90;8.25;;;;;;;-145.63;100.00;61273.97;5130006;27;20079;-63
2024/03/29 06:12:40;;;;;;;19.25;9.18;;;;;;;-145.63;100.00;61273.97;5122554;27;20043;-63
2024/03/29 06:17:51;;;;;;;14.55;7.50;;;;;;;-145.63;100.00;61273.97;5119867;27;20039;-64
2024/03/29 06:20:16;;;;;;;16.25;7.57;;;;;;;-145.63;100.00;61273.97;5132291;27;20049;-65
2024/03/29 06:22:42;;;;;;;12.40;7.43;;;;;;;-145.63;100.00;61273.97;5113356;28;20073;-64
2024/03/29 06:25:09;;;;;;;16.60;7.95;;;;;;;-145.63;100.00;61273.97;5130199;27;20046;-64
2024/03/29 06:27:35;;;;;;;14.70;6.70;;;;;;;-145.63;100.00;61273.97;5121788;27;20038;-63
2024/03/29 06:30:03;;;;;;;16.27;7.90;;;;;;;-145.63;100.00;61273.97;5113563;28;20027;-63
2024/03/29 06:32:32;;;;;;;13.45;7.20;;;;;;;-145.63;100.00;61273.97;5116563;27;20031;-64
2024/03/29 06:35:01;;;;;;;15.30;7.28;;;;;;;-145.63;100.00;61273.97;5133442;27;20034;-62
2024/03/29 06:37:29;;;;;;;14.45;7.80;;;;;;;-145.63;100.00;61273.97;5133120;27;20039;-63
2024/03/29 06:39:55;;;;;;;15.00;7.20;;;;;;;-145.63;100.00;61273.97;5118825;27;20027;-63
2024/03/29 06:42:21;;;;;;;13.45;7.18;;;;;;;-145.63;100.00;61273.97;5112910;27;20032;-62
2024/03/29 06:44:47;;;;;;;18.73;6.93;;;;;;;-145.63;100.00;61273.97;5092760;28;20499;-62
2024/03/29 06:47:12;;;;;;;16.33;7.47;;;;;;;-145.63;100.00;61273.97;5124110;27;20405;-63
2024/03/29 06:49:38;;;;;;;17.40;7.07;;;;;;;-145.63;100.00;61273.97;5133386;27;20042;-63
2024/03/29 06:52:04;;;;;;;14.38;7.50;;;;;;;-145.63;100.00;61273.97;5130365;27;20126;-62
2024/03/29 06:54:32;;;;;;;18.63;7.20;;;;;;;-145.63;100.00;61273.97;5132716;27;20054;-62
2024/03/29 06:56:58;;;;;;;14.20;7.03;;;;;;;-145.63;100.00;61273.97;5129619;27;20062;-62
2024/03/29 06:59:24;;;;;;;21.38;7.60;;;;;;;-145.63;100.00;61273.97;5151946;27;20022;-62
2024/03/29 07:01:51;;;;;;;15.48;7.05;;;;;;;-145.63;100.00;61273.97;5126548;27;20027;-62
2024/03/29 07:04:24;;;;;;;16.70;7.05;;;;;;;-145.63;100.00;61273.97;5111997;28;20035;-63
2024/03/29 07:06:51;;;;;;;20.77;7.78;;;;;;;-145.63;100.00;61273.97;5125701;27;20102;-61
2024/03/29 07:09:22;;;;;;;17.15;8.13;;;;;;;-145.63;100.00;61273.97;5123669;27;20115;-61
2024/03/29 07:11:50;;;;;;;16.55;7.60;;;;;;;-145.63;100.00;61273.97;5112354;28;20032;-61
2024/03/29 07:14:17;;;;;;;15.00;6.65;;;;;;;-145.63;100.00;61273.97;5125605;27;20023;-61
2024/03/29 07:16:44;;;;;;;21.75;7.85;;;;;;;-145.63;100.00;61273.97;5112410;28;20045;-60
2024/03/29 07:19:14;;;;;;;17.33;7.72;;;;;;;-145.63;100.00;61273.97;5093354;28;20428;-61
2024/03/29 07:21:40;;;;;;;17.92;7.78;;;;;;;-145.63;100.00;61273.97;5134434;27;20031;-61
2024/03/29 07:24:07;;;;;;;20.33;8.60;;;;;;;-145.63;100.00;61273.97;5107181;27;20054;-62
2024/03/29 07:26:33;;;;;;;17.05;7.88;;;;;;;-145.63;100.00;61273.97;5129374;27;20035;-62
2024/03/29 07:28:59;;;;;;;15.98;7.32;;;;;;;-145.63;100.00;61273.97;5112739;28;20081;-61
2024/03/29 07:31:24;;;;;;;19.08;8.02;;;;;;;-145.63;100.00;61273.97;5130803;27;20031;-61
2024/03/29 07:33:50;;;;;;;16.77;8.18;;;;;;;-145.63;100.00;61273.97;5100337;28;20107;-63
2024/03/29 07:36:16;;;;;;;18.17;8.25;;;;;;;-145.63;100.00;61273.97;5111840;28;20036;-62
2024/03/29 07:38:43;;;;;;;23.90;8.88;;;;;;;-145.63;100.00;61273.97;5116410;27;20027;-62
2024/03/29 07:41:10;;;;;;;14.45;8.70;;;;;;;-145.63;100.00;61273.97;5132946;27;20029;-61
2024/03/29 07:43:40;;;;;;;14.38;8.07;;;;;;;-145.63;100.00;61273.97;5112386;28;20032;-60
2024/03/29 07:46:09;;;;;;;15.80;8.33;;;;;;;-145.63;100.00;61273.97;5114059;27;20031;-61
2024/03/29 07:48:36;;;;;;;15.25;8.02;;;;;;;-145.63;100.00;61273.97;5102067;28;20485;-61
2024/03/29 07:51:02;;;;;;;14.93;8.60;;;;;;;-145.63;100.00;61273.97;5118822;27;20082;-62
2024/03/29 07:53:27;;;;;;;16.35;8.35;;;;;;;-145.63;100.00;61273.97;5112016;27;20034;-62
2024/03/29 07:55:53;;;;;;;17.52;8.10;;;;;;;-145.63;100.00;61273.97;5111664;28;20456;-62
2024/03/29 07:58:18;;;;;;;12.25;7.70;;;;;;;-145.63;100.00;61273.97;5128894;27;20038;-63
2024/03/29 08:00:44;;;;;;;16.25;7.80;;;;;;;-145.63;100.00;61273.97;5119992;27;20020;-63
2024/03/29 08:03:10;;;;;;;13.73;7.72;;;;;;;-145.63;100.00;61273.97;5111578;28;20051;-62
2024/03/29 08:05:36;;;;;;;15.85;8.23;;;;;;;-145.63;100.00;61273.97;5093004;28;20028;-62
2024/03/29 08:08:03;;;;;;;16.58;8.43;;;;;;;-145.63;100.00;61273.97;5111347;28;20028;-62
2024/03/29 08:10:29;;;;;;;18.33;8.00;;;;;;;-145.63;100.00;61273.97;5130412;27;20023;-61
2024/03/29 08:12:55;;;;;;;10.57;7.43;;;;;;;-145.63;100.00;61273.97;5117355;27;20028;-61
2024/03/29 08:15:21;;;;;;;12.05;7.57;;;;;;;-145.63;100.00;61273.97;5120550;28;20092;-62
2024/03/29 08:17:47;;;;;;;13.80;8.35;;;;;;;-145.63;100.00;61273.97;5108931;28;20044;-63
2024/03/29 08:20:12;;;;;;;15.10;7.90;;;;;;;-145.63;100.00;61273.97;5111121;28;20028;-62
2024/03/29 08:22:38;;;;;;;16.63;9.02;;;;;;;-145.63;100.00;61273.97;5111630;28;20019;-62
2024/03/29 08:25:04;;;;;;;16.83;9.10;;;;;;;-145.63;100.00;61273.97;5125974;28;20729;-62
2024/03/29 08:27:30;;;;;;;18.63;8.18;;;;;;;-145.63;100.00;61273.97;5112197;28;20373;-61
2024/03/29 08:29:56;;;;;;;14.60;8.23;;;;;;;-145.63;100.00;61273.97;5125829;27;20086;-61
2024/03/29 08:32:22;;;;;;;17.05;8.35;;;;;;;-145.63;100.00;61273.97;5132585;27;20031;-62
2024/03/29 08:34:48;;;;;;;13.68;8.27;;;;;;;-145.63;100.00;61273.97;5116000;28;20028;-61
2024/03/29 08:37:13;;;;;;;15.85;9.65;;;;;;;-145.63;100.00;61273.97;5115752;28;20059;-61
2024/03/29 08:39:39;;;;;;;19.13;9.10;;;;;;;-145.63;100.00;61273.97;5115648;28;20032;-61
2024/03/29 08:42:05;;;;;;;15.13;8.50;;;;;;;-145.63;100.00;61273.97;5115071;28;20028;-61
2024/03/29 08:44:32;;;;;;;17.02;9.40;;;;;;;-145.63;100.00;61273.97;5117385;27;20031;-61
2024/03/29 08:47:01;;;;;;;16.33;9.30;;;;;;;-145.63;100.00;61273.97;5117412;27;20049;-62
2024/03/29 08:49:27;;;;;;;15.60;8.65;;;;;;;-145.63;100.00;61273.97;5117328;27;20076;-62
2024/03/29 08:51:52;;;;;;;18.95;8.93;;;;;;;-145.63;100.00;61273.97;5128944;27;20035;-62
2024/03/29 08:54:18;;;;;;;15.32;8.63;;;;;;;-145.63;100.00;61273.97;5126127;27;20038;-62
2024/03/29 08:56:44;;;;;;;16.52;9.00;;;;;;;-145.63;100.00;61273.97;5121101;27;20038;-62
2024/03/29 08:59:11;;;;;;;15.52;9.30;;;;;;;-145.63;100.00;61273.97;5115384;28;20032;-62
2024/03/29 09:01:41;;;;;;;11.30;8.20;;;;;;;-145.63;100.00;61273.97;5114713;28;20024;-62
2024/03/29 09:04:11;;;;;;;14.57;8.82;;;;;;;-145.63;100.00;61273.97;5115400;28;20036;-62
2024/03/29 09:06:37;;;;;;;16.15;8.75;;;;;;;-145.63;100.00;61273.97;5114776;28;20035;-62
2024/03/29 09:09:04;;;;;;;15.85;9.32;;;;;;;-145.63;100.00;61273.97;5120983;27;20050;-62
2024/03/29 09:11:30;;;;;;;12.00;8.48;;;;;;;-145.63;100.00;61273.97;5133980;27;20022;-62
2024/03/29 09:13:58;;;;;;;12.07;8.55;;;;;;;-145.63;100.00;61273.97;5114727;28;20381;-61
2024/03/29 09:16:25;;;;;;;12.68;8.70;;;;;;;-145.63;100.00;61273.97;5131738;27;20080;-62
2024/03/29 09:18:51;;;;;;;19.85;9.27;;;;;;;-145.63;100.00;61273.97;5135343;27;20328;-62
2024/03/29 09:21:17;;;;;;;15.80;9.35;;;;;;;-145.63;100.00;61273.97;5127148;27;20055;-62
2024/03/29 09:23:42;;;;;;;12.73;8.88;;;;;;;-145.63;100.00;61273.97;5129072;27;20097;-62
2024/03/29 09:26:08;;;;;;;12.60;9.10;;;;;;;-145.63;100.00;61273.97;5113338;28;20043;-62
2024/03/29 09:28:36;;;;;;;14.18;9.40;;;;;;;-145.63;100.00;61273.97;5113180;28;20039;-62
2024/03/29 09:31:02;;;;;;;15.63;9.18;;;;;;;-145.63;100.00;61273.97;5127723;28;20459;-61
2024/03/29 09:33:28;;;;;;;10.13;8.60;;;;;;;-145.63;100.00;61273.97;5124413;28;20039;-63
2024/03/29 09:35:54;;;;;;;12.77;8.68;;;;;;;-145.63;100.00;61273.97;5117873;28;20039;-63
2024/03/29 09:38:20;;;;;;;16.55;9.40;;;;;;;-145.63;100.00;61273.97;5132862;28;20046;-63
2024/03/29 09:40:53;;;;;;;17.27;9.10;;;;;;;-145.63;100.00;61273.97;5118365;27;20031;-61
2024/03/29 09:43:19;;;;;;;13.95;8.82;;;;;;;-145.63;100.00;61273.97;5116395;28;20028;-63
2024/03/29 09:45:45;;;;;;;13.20;8.88;;;;;;;-145.63;100.00;61273.97;5119786;28;20202;-61
2024/03/29 09:48:11;;;;;;;12.88;8.20;;;;;;;-145.63;100.00;61273.97;5126336;28;20111;-61
2024/03/29 09:50:37;;;;;;;10.88;8.77;;;;;;;-145.63;100.00;61273.97;5112839;28;20040;-62
2024/03/29 09:53:08;;;;;;;17.45;10.30;;;;;;;-145.63;100.00;61273.97;5112767;28;20023;-62
2024/03/29 09:55:35;;;;;;;16.83;10.50;;;;;;;-145.63;100.00;61273.97;5131384;28;20088;-61
2024/03/29 09:58:02;;;;;;;17.45;9.02;;;;;;;-145.63;100.00;61273.97;5118719;28;20050;-61
2024/03/29 10:00:28;;;;;;;15.77;9.48;;;;;;;-145.63;100.00;61273.97;5112224;28;20023;-62
2024/03/29 10:02:58;;;;;;;14.18;9.80;;;;;;;-145.63;100.00;61273.97;5128984;28;20054;-61
2024/03/29 10:05:27;;;;;;;14.00;9.25;;;;;;;-145.63;100.00;61273.97;5129106;28;20028;-61
2024/03/29 10:07:54;;;;;;;15.77;10.35;;;;;;;-145.63;100.00;61273.97;5112606;28;20031;-61
2024/03/29 10:10:19;;;;;;;15.70;9.60;;;;;;;-145.63;100.00;61273.97;5113372;28;20023;-62
2024/03/29 10:12:45;;;;;;;13.57;9.55;;;;;;;-145.63;100.00;61273.97;5121563;28;20032;-62
2024/03/29 10:15:14;;;;;;;13.88;10.10;;;;;;;-145.63;100.00;61273.97;5112663;28;20035;-62
2024/03/29 10:17:46;;;;;;;13.48;10.45;;;;;;;-145.63;100.00;61273.97;5115191;28;20032;-61
2024/03/29 10:20:13;;;;;;;18.52;10.50;;;;;;;-145.63;100.00;61273.97;5132691;28;20102;-62
2024/03/29 10:22:43;;;;;;;16.90;9.82;;;;;;;-145.63;100.00;61273.97;5113713;28;20172;-62
2024/03/29 10:25:08;;;;;;;13.85;10.18;;;;;;;-145.63;100.00;61273.97;5128540;27;20047;-61
2024/03/29 10:27:34;;;;;;;14.05;9.98;;;;;;;-145.63;100.00;61273.97;5123951;27;20036;-62
2024/03/29 10:30:00;;;;;;;20.20;10.65;;;;;;;-145.63;100.00;61273.97;5113609;28;20031;-61
2024/03/29 10:32:26;;;;;;;18.20;10.50;;;;;;;-145.63;100.00;61273.97;5113336;27;20039;-62
2024/03/29 10:34:51;;;;;;;15.82;10.15;;;;;;;-145.63;100.00;61273.97;5133679;27;20068;-62
2024/03/29 10:37:26;;;;;;;15.93;10.30;;;;;;;-145.63;100.00;61273.97;5117739;27;20047;-61
2024/03/29 10:39:52;;;;;;;15.27;10.63;;;;;;;-145.63;100.00;61273.97;5112960;28;20055;-61
2024/03/29 10:42:20;;;;;;;17.98;10.48;;;;;;;-145.63;100.00;61273.97;5113051;28;20031;-62
2024/03/29 10:44:48;;;;;;;18.73;11.18;;;;;;;-145.63;100.00;61273.97;5115767;27;20031;-60
2024/03/29 10:47:18;;;;;;;16.88;10.75;;;;;;;-145.63;100.00;61273.97;5133095;27;20027;-61
2024/03/29 10:49:50;;;;;;;13.00;10.18;;;;;;;-145.63;100.00;61273.97;5113803;27;20096;-62
2024/03/29 10:52:17;;;;;;;18.00;10.68;;;;;;;-145.63;100.00;61273.97;5113809;27;20031;-61
2024/03/29 10:54:47;;;;;;;17.02;10.27;;;;;;;-145.63;100.00;61273.97;5118963;27;20120;-65
2024/03/29 10:57:21;;;;;;;17.33;11.38;;;;;;;-145.63;100.00;61273.97;5119636;27;20118;-61
2024/03/29 10:59:57;;;;;;;17.50;10.93;;;;;;;-145.63;100.00;61273.97;5129741;27;20024;-61